Latest Weather Observations for Essendon Airport

IDV60801

Issued at 11:02 am EDT Thursday 23 January 2020 (issued every 10 minutes, with the page automatically refreshed every 10 minutes)

About weather observations | Map of weather stations | Latest weather observations for VIC | Other Formats
Station Details ID: 086038 Name: ESSENDON AIRPORT Lat: -37.73 Lon: 144.91 Height: 78.4 m
Data from the previous 72 hours. | See also: Recent months at Essendon Airport
Date/Time
EDT
Temp
°C
App
Temp
°C
Dew
Point
°C
Rel
Hum
%
Delta-T
°C
Wind Press
QNH
hPa
Press
MSL
hPa
Rain since
9am
mm
Dir  Spd
km/h
Gust
km/h
Spd
kts
Gust
kts
23/11:00am 17.5 12.4 11.8 69 3.2 NNW 30 52 16 28 996.8 996.5 0.4
23/10:30am 16.2 14.1 13.5 84 1.5 N 17 26 9 14 997.5 997.3 0.4
23/10:00am 15.2 12.2 12.7 85 1.4 NNW 20 28 11 15 997.6 997.4 0.4
23/09:30am 14.7 12.2 12.4 86 1.3 NW 17 24 9 13 997.7 997.5 0.2
23/09:00am 14.6 13.0 12.8 89 1.0 NNW 13 17 7 9 997.1 996.9 21.8
23/08:30am 14.6 14.2 13.1 91 0.8 NW 7 15 4 8 997.0 996.8 21.8
23/08:00am 14.2 12.7 13.2 94 0.6 NW 13 17 7 9 996.9 996.6 21.4
23/07:30am 13.8 12.8 13.3 97 0.3 N 11 17 6 9 996.4 996.1 20.4
23/07:00am 13.5 12.8 13.2 98 0.2 NNE 9 15 5 8 996.2 995.9 20.0
23/06:30am 13.4 11.5 13.1 98 0.2 NNE 15 20 8 11 996.1 995.8 19.6
23/06:12am 13.3 12.2 13.1 99 0.1 NNE 11 17 6 9 995.8 995.5 19.2
23/06:07am 13.3 12.2 13.1 99 0.1 NNE 11 15 6 8 996.1 995.8 19.0
23/06:00am 13.2 12.4 13.0 99 0.1 NE 9 13 5 7 996.2 995.9 18.6
23/05:55am 13.2 12.4 13.0 99 0.1 NE 9 17 5 9 996.4 996.1 18.2
23/05:53am 13.2 12.1 13.0 99 0.1 NE 11 17 6 9 996.3 996.0 18.2
23/05:30am 12.9 11.3 12.7 99 0.1 NE 13 17 7 9 997.0 996.8 17.0
23/05:00am 12.7 11.7 12.4 98 0.2 SW 9 13 5 7 997.1 996.9 15.8
23/04:53am 12.6 12.6 12.3 98 0.2 WSW 4 11 2 6 997.2 997.0 15.6
23/04:30am 12.5 11.4 12.0 97 0.3 WSW 9 13 5 7 997.8 997.6 14.4
23/04:17am 12.6 10.8 12.1 97 0.3 WSW 13 17 7 9 997.9 997.7 13.2
23/04:00am 12.8 10.7 12.5 98 0.2 WSW 15 17 8 9 997.6 997.4 12.6
23/03:30am 12.9 11.3 12.7 99 0.1 WSW 13 17 7 9 997.8 997.6 12.2
23/03:00am 12.7 10.6 12.5 99 0.1 SW 15 20 8 11 997.8 997.6 11.8
23/02:30am 12.8 10.4 12.5 98 0.2 SW 17 20 9 11 998.4 998.2 11.4
23/02:05am 12.8 12.3 12.5 98 0.2 SW 7 11 4 6 998.5 998.3 11.2
23/02:00am 12.8 12.4 12.5 98 0.2 SW 6 11 3 6 998.5 998.3 11.2
23/01:55am 12.7 11.7 12.4 98 0.2 SW 9 20 5 11 998.7 998.5 11.2
23/01:30am 13.1 9.4 12.8 98 0.2 SW 24 28 13 15 999.0 998.8 10.8
23/01:02am 14.8 13.4 14.5 98 0.2 SSE 15 19 8 10 999.2 999.0 10.0
23/01:00am 14.8 13.4 14.5 98 0.2 SSE 15 19 8 10 999.2 999.0 10.0
23/12:52am 14.8 13.4 14.5 98 0.2 S 15 20 8 11 999.6 999.4 9.4
23/12:30am 15.5 15.0 15.0 97 0.3 S 11 15 6 8 999.6 999.4 7.2
23/12:00am 15.2 15.0 14.6 96 0.3 SE 9 15 5 8 999.5 999.3 5.6
 
Date/Time
EDT
Temp
°C
App
Temp
°C
Dew
Point
°C
Rel
Hum
%
Delta-T
°C
Wind Press
QNH
hPa
Press
MSL
hPa
Rain since
9am
mm
Dir  Spd
km/h
Gust
km/h
Spd
kts
Gust
kts
22/11:52pm 15.4 15.2 14.8 96 0.3 SSE 9 13 5 7 999.7 999.5 5.2
22/11:32pm 15.2 15.5 14.4 95 0.5 SSE 6 7 3 4 1001.1 1000.9 3.6
22/11:30pm 15.4 15.7 14.6 95 0.5 SSE 6 9 3 5 1001.2 1001.0 3.4
22/11:13pm 15.3 14.2 14.3 94 0.6 SSW 13 20 7 11 1001.3 1001.1 1.8
22/11:00pm 15.4 12.6 14.3 93 0.6 SW 22 30 12 16 1001.8 1001.6 1.4
22/10:30pm 16.5 13.8 15.5 94 0.6 S 24 33 13 18 1000.4 1000.2 0.4
22/10:00pm 17.1 14.4 15.6 91 0.9 S 24 35 13 19 1000.5 1000.3 0.2
22/09:30pm 17.5 14.4 15.7 89 1.1 S 26 41 14 22 1000.2 1000.0 0.0
22/09:00pm 17.9 13.9 16.1 89 1.1 SSW 32 39 17 21 998.6 998.4 0.0
22/08:43pm 17.8 14.1 16.0 89 1.1 SSW 30 48 16 26 998.1 997.9 0.0
22/08:30pm 17.9 13.2 15.9 88 1.2 SSW 35 48 19 26 998.3 998.1 0.0
22/08:00pm 19.6 13.3 14.6 73 2.9 SW 41 67 22 36 997.5 997.3 0.0
22/07:53pm 21.4 17.2 13.6 61 4.5 W 28 50 15 27 996.8 996.5 0.0
22/07:49pm 25.9 21.1 11.6 40 8.2 NNW 28 52 15 28 996.5 996.2 0.0
22/07:33pm 28.6 21.9 9.8 31 10.6 N 35 54 19 29 994.5 994.2 0.0
22/07:30pm 28.7 21.6 9.4 30 10.8 N 37 54 20 29 994.6 994.3 0.0
22/07:00pm 29.1 20.6 9.3 29 11.1 N 44 63 24 34 995.1 994.8 0.0
22/06:30pm 29.6 21.3 9.2 28 11.4 N 43 69 23 37 995.7 995.4 0.0
22/06:00pm 29.9 21.3 8.9 27 11.8 N 44 76 24 41 995.8 995.5 0.0
22/05:30pm 30.7 20.7 7.8 24 12.6 NNW 50 78 27 42 995.9 995.6 0.0
22/05:26pm 30.7 21.8 7.8 24 12.6 N 44 78 24 42 995.9 995.6 0.0
22/05:00pm 30.4 23.1 8.7 26 12.1 N 37 57 20 31 996.6 996.3 0.0
22/04:30pm 30.1 21.0 8.5 26 12.0 N 46 69 25 37 996.8 996.5 0.0
22/04:00pm 30.0 21.1 7.8 25 12.2 N 44 78 24 42 997.3 997.1 0.0
22/03:30pm 31.2 22.9 7.6 23 12.9 NNW 41 61 22 33 997.8 997.6 0.0
22/03:00pm 31.7 24.0 8.7 24 12.9 NNW 39 63 21 34 998.2 998.0 0.0
22/02:33pm 31.4 22.9 8.4 24 12.8 N 43 72 23 39 998.5 998.3 0.0
22/02:30pm 31.3 23.6 10.1 27 12.1 N 41 56 22 30 998.7 998.5 0.0
22/02:01pm 31.1 23.9 10.4 28 11.9 N 39 67 21 36 999.0 998.8 0.0
22/02:00pm 30.9 23.8 10.8 29 11.7 N 39 56 21 30 999.1 998.9 0.0
22/01:30pm 30.7 23.1 10.6 29 11.5 N 41 70 22 38 999.7 999.5 0.0
22/01:00pm 28.5 21.6 11.6 35 9.8 N 39 63 21 34 1000.3 1000.1 0.0
22/12:30pm 28.2 20.6 11.7 36 9.5 N 43 61 23 33 1000.8 1000.6 0.0
22/12:00pm 28.1 20.1 12.5 38 9.2 N 46 67 25 36 1000.6 1000.4 0.0
22/11:30am 27.1 18.6 12.0 39 8.7 N 48 70 26 38 1000.8 1000.6 0.0
22/11:00am 27.1 17.9 13.4 42 8.1 N 54 74 29 40 1000.7 1000.5 0.0
22/10:30am 26.1 19.2 13.9 47 7.2 N 43 63 23 34 1001.5 1001.3 0.0
22/10:00am 24.5 17.8 13.4 50 6.5 N 41 63 22 34 1001.8 1001.6 0.0
22/09:30am 23.1 17.5 13.3 54 5.7 N 35 54 19 29 1002.5 1002.2 0.0
22/09:00am 22.4 15.4 12.6 54 5.6 N 41 59 22 32 1002.5 1002.2 0.0
22/08:30am 22.4 15.0 12.4 53 5.7 N 43 67 23 36 1002.9 1002.6 0.0
22/08:06am 22.3 15.9 12.0 52 5.8 N 37 56 20 30 1002.9 1002.6 0.0
22/08:00am 22.1 16.1 12.1 53 5.7 N 35 48 19 26 1003.1 1002.8 0.0
22/07:36am 21.0 14.9 11.6 55 5.2 N 35 54 19 29 1003.2 1002.9 0.0
22/07:30am 20.7 15.4 11.3 55 5.2 N 30 44 16 24 1003.3 1003.0 0.0
22/07:10am 20.2 14.3 10.6 54 5.2 N 32 50 17 27 1003.5 1003.2 0.0
22/07:00am 20.2 14.3 10.6 54 5.3 N 32 46 17 25 1003.6 1003.3 0.0
22/06:30am 19.1 15.0 10.1 56 4.8 N 22 30 12 16 1004.0 1003.7 0.0
22/06:00am 18.4 14.7 10.0 58 4.5 N 20 30 11 16 1004.2 1003.9 0.0
22/05:30am 17.3 14.2 10.2 63 3.8 N 17 22 9 12 1004.3 1004.0 0.0
22/05:00am 16.3 14.3 10.2 67 3.2 N 11 15 6 8 1004.4 1004.1 0.0
22/04:30am 16.8 14.4 10.2 65 3.5 N 13 19 7 10 1004.4 1004.1 0.0
22/04:00am 16.7 13.3 10.5 67 3.3 N 19 24 10 13 1004.6 1004.3 0.0
22/03:30am 13.1 11.9 11.7 91 0.7 ENE 9 11 5 6 1004.9 1004.6 0.0
22/03:00am 13.1 12.0 12.0 93 0.6 ESE 9 9 5 5 1005.3 1005.0 0.0
22/02:30am 12.9 11.7 11.6 92 0.7 ESE 9 9 5 5 1005.6 1005.3 0.0
22/02:00am 13.5 13.0 12.1 91 0.8 ESE 6 7 3 4 1006.0 1005.7 0.0
22/01:30am 14.8 14.3 12.1 84 1.5 ESE 6 7 3 4 1006.3 1006.0 0.0
22/01:00am 14.8 14.3 12.5 86 1.3 ESE 7 9 4 5 1006.5 1006.2 0.0
22/12:30am 14.6 14.1 12.1 85 1.4 ESE 6 7 3 4 1006.8 1006.5 0.0
22/12:00am 14.7 14.1 11.8 83 1.6 ESE 6 7 3 4 1007.2 1006.9 0.0
 
Date/Time
EDT
Temp
°C
App
Temp
°C
Dew
Point
°C
Rel
Hum
%
Delta-T
°C
Wind Press
QNH
hPa
Press
MSL
hPa
Rain since
9am
mm
Dir  Spd
km/h
Gust
km/h
Spd
kts
Gust
kts
21/11:30pm 15.0 14.1 11.4 79 1.9 SE 7 9 4 5 1007.5 1007.2 0.0
21/11:00pm 15.2 14.3 11.4 78 2.0 SE 7 9 4 5 1008.0 1007.8 0.0
21/10:30pm 15.8 15.5 11.6 76 2.3 SE 4 9 2 5 1008.1 1007.9 0.0
21/10:00pm 16.4 15.1 12.6 78 2.1 WSW 11 13 6 7 1008.0 1007.8 0.0
21/09:30pm 16.5 15.3 12.7 78 2.1 WSW 11 13 6 7 1007.6 1007.3 0.0
21/09:00pm 16.6 15.3 12.6 77 2.2 SW 11 15 6 8 1007.5 1007.2 0.0
21/08:30pm 17.4 15.3 12.3 72 2.8 S 15 19 8 10 1007.5 1007.2 0.0
21/08:00pm 18.1 15.0 12.1 68 3.3 S 20 26 11 14 1007.6 1007.3 0.0
21/07:30pm 18.6 14.6 11.9 65 3.7 S 24 30 13 16 1007.3 1007.0 0.0
21/07:00pm 19.4 15.4 11.7 61 4.3 SSW 24 30 13 16 1007.2 1006.9 0.0
21/06:30pm 19.9 15.8 11.4 58 4.7 S 24 30 13 16 1007.0 1006.7 0.0
21/06:00pm 20.1 16.0 11.6 58 4.7 S 24 32 13 17 1007.0 1006.7 0.0
21/05:30pm 20.1 15.3 11.6 58 4.7 S 28 35 15 19 1007.0 1006.7 0.0
21/05:00pm 21.3 17.0 11.9 55 5.3 SSE 26 32 14 17 1007.1 1006.8 0.0
21/04:30pm 22.4 18.6 11.2 49 6.2 SSE 22 30 12 16 1007.1 1006.8 0.0
21/04:00pm 22.6 19.9 10.4 46 6.7 S 15 24 8 13 1007.5 1007.2 0.0
21/03:30pm 22.4 20.2 10.9 48 6.4 S 13 24 7 13 1007.9 1007.6 0.0
21/03:00pm 22.1 20.2 10.6 48 6.3 SSE 11 20 6 11 1008.2 1008.0 0.0
21/02:30pm 21.5 19.0 10.9 51 5.8 SSE 15 20 8 11 1008.5 1008.3 0.0
21/02:00pm 21.0 18.4 9.3 47 6.3 SSE 13 20 7 11 1008.9 1008.7 0.0
21/01:30pm 21.5 19.4 9.7 47 6.4 WNW 11 20 6 11 1009.2 1009.0 0.0
21/01:00pm 20.7 19.9 11.6 56 5.1 WNW 7 13 4 7 1009.8 1009.6 0.0
21/12:30pm 20.2 17.6 10.6 54 5.2 W 15 24 8 13 1010.3 1010.1 0.0
21/12:00pm 19.4 17.7 9.9 54 5.1 NW 9 19 5 10 1010.5 1010.3 0.0
21/11:30am 18.4 16.8 10.3 59 4.3 NW 9 15 5 8 1010.6 1010.4 0.0
21/11:00am 17.4 15.9 9.1 58 4.3 SW 7 15 4 8 1011.0 1010.8 0.0
21/10:30am 17.5 15.9 10.1 62 3.9 WSW 9 15 5 8 1011.1 1010.9 0.0
21/10:00am 16.2 13.2 9.4 64 3.5 SW 15 20 8 11 1011.3 1011.1 0.0
21/09:30am 16.1 13.0 10.2 68 3.1 WSW 17 22 9 12 1011.0 1010.8 0.0
21/09:00am 15.8 13.4 10.1 69 3.0 W 13 20 7 11 1010.9 1010.7 34.4
21/08:30am 15.1 12.2 11.1 77 2.1 W 17 20 9 11 1010.6 1010.4 34.4
21/08:00am 14.3 10.4 10.9 80 1.8 WSW 22 26 12 14 1010.3 1010.1 34.4
21/07:30am 14.0 10.6 11.2 83 1.5 W 20 26 11 14 1010.0 1009.8 34.4
21/07:00am 13.7 10.8 11.0 84 1.4 WSW 17 24 9 13 1009.5 1009.3 34.4
21/06:30am 13.8 11.0 11.3 85 1.3 WSW 17 22 9 12 1009.3 1009.1 34.4
21/06:00am 13.9 10.5 11.4 85 1.3 WSW 20 30 11 16 1009.1 1008.9 34.4
21/05:30am 13.9 11.1 11.4 85 1.3 WSW 17 20 9 11 1008.6 1008.4 34.4
21/05:00am 14.0 10.9 11.7 86 1.2 WSW 19 24 10 13 1008.4 1008.2 34.4
21/04:30am 14.0 10.8 12.0 88 1.1 WSW 20 26 11 14 1008.1 1007.9 34.4
21/04:00am 13.9 10.9 11.9 88 1.1 WSW 19 24 10 13 1008.0 1007.8 34.4
21/03:30am 13.9 10.9 12.1 89 1.0 WSW 19 24 10 13 1007.9 1007.6 34.4
21/03:00am 14.0 10.9 12.2 89 1.0 WSW 20 28 11 15 1008.0 1007.8 34.4
21/02:30am 14.1 11.0 12.3 89 1.0 WSW 20 28 11 15 1008.1 1007.9 34.4
21/02:00am 14.2 10.4 12.4 89 1.0 WSW 24 28 13 15 1008.1 1007.9 34.4
21/01:30am 14.3 11.0 12.9 91 0.8 WSW 22 30 12 16 1008.3 1008.1 34.4
21/01:18am 14.3 10.5 12.5 89 1.0 WSW 24 32 13 17 1008.2 1008.0 34.4
21/01:00am 14.1 10.3 12.5 90 0.9 SW 24 33 13 18 1008.3 1008.1 34.4
21/12:30am 14.4 11.2 13.1 92 0.7 SW 22 30 12 16 1008.4 1008.2 34.2
21/12:00am 14.2 11.3 13.9 98 0.2 SW 22 30 12 16 1008.3 1008.1 34.2
 
Date/Time
EDT
Temp
°C
App
Temp
°C
Dew
Point
°C
Rel
Hum
%
Delta-T
°C
Wind Press
QNH
hPa
Press
MSL
hPa
Rain since
9am
mm
Dir  Spd
km/h
Gust
km/h
Spd
kts
Gust
kts
20/11:30pm 14.5 11.7 14.3 99 0.1 SW 22 28 12 15 1008.2 1008.0 34.0
20/11:00pm 14.6 11.1 14.4 99 0.1 SW 26 32 14 17 1008.0 1007.8 33.8
20/10:30pm 14.8 11.8 14.8 100 0.0 SW 24 33 13 18 1007.9 1007.6 33.0
20/10:00pm 15.1 11.4 15.1 100 0.0 SW 28 35 15 19 1007.7 1007.4 32.2
20/09:30pm 15.3 12.1 15.3 100 0.0 SSW 26 33 14 18 1007.2 1006.9 30.8
20/09:00pm 15.5 12.4 15.5 100 0.0 SW 26 35 14 19 1006.8 1006.5 29.2
20/08:30pm 15.4 11.8 15.2 99 0.1 SW 28 37 15 20 1006.5 1006.2 28.2
20/08:00pm 15.9 13.6 15.7 99 0.1 SSW 22 32 12 17 1006.0 1005.7 24.4
20/07:30pm 16.1 13.1 15.9 99 0.1 SSW 26 35 14 19 1005.6 1005.3 21.2
20/07:00pm 16.1 13.1 15.9 99 0.1 SSW 26 35 14 19 1005.2 1004.9 18.8
20/06:30pm 16.3 13.8 16.1 99 0.1 S 24 32 13 17 1004.8 1004.5 16.6
20/06:00pm 16.6 13.8 16.4 99 0.1 SSW 26 35 14 19 1004.6 1004.3 15.6
20/05:30pm 16.8 14.4 16.5 98 0.2 SSW 24 35 13 19 1004.4 1004.1 12.8
20/05:00pm 16.8 14.0 16.3 97 0.3 S 26 37 14 20 1004.0 1003.7 9.0
20/04:30pm 17.0 14.3 16.7 98 0.2 S 26 41 14 22 1003.8 1003.5 8.0
20/04:00pm 17.1 14.0 16.6 97 0.3 S 28 37 15 20 1003.7 1003.4 4.0
20/03:30pm 17.7 13.9 16.6 93 0.7 S 32 43 17 23 1003.7 1003.4 0.4
20/03:00pm 18.8 14.1 15.9 83 1.7 S 35 46 19 25 1003.5 1003.2 0.0
20/02:30pm 19.5 14.9 16.2 81 2.0 S 35 46 19 25 1003.7 1003.4 0.0
20/02:00pm 20.0 16.2 17.2 84 1.7 S 33 43 18 23 1003.6 1003.3 0.0
20/01:30pm 20.6 17.3 17.0 80 2.2 S 30 41 16 22 1003.6 1003.3 0.0
20/01:00pm 20.4 17.2 17.2 82 2.0 SSW 30 39 16 21 1003.8 1003.5 0.0
20/12:30pm 21.4 19.4 17.4 78 2.5 SSW 24 32 13 17 1003.8 1003.5 0.0
20/12:00pm 21.0 19.4 17.4 80 2.2 S 22 32 12 17 1004.3 1004.0 0.0
20/11:45am 21.9 20.8 17.7 77 2.6 S 20 28 11 15 1004.4 1004.1 0.0
20/11:30am 21.2 20.1 17.2 78 2.5 SSW 19 24 10 13 1004.5 1004.2 0.0

Other formats

Comma delimited format used in spreadsheet applications
http://www.bom.gov.au/fwo/IDV60801/IDV60801.95866.axf

JavaScript Object Notation format (JSON) in row-major order
http://www.bom.gov.au/fwo/IDV60801/IDV60801.95866.json

Data quality

Most of these data are generated automatically and are frequently updated. Quality checks on data are not normally performed. It is possible for incorrect values to appear. Refer to information at About Latest Weather Observations and please check the disclaimer before using these data.